Delray Beach, FL (33444)

9:44 AM EDT on September 05, 2015 (GMT -0400)
Delray Beach | | Change Station
CLOSE
Current Station
Personal Weather Station
Location: Delray Beach, FL
Elevation: 30 ft
Nearby Weather Stations

Elev 30 ft 26.47 °N, 80.09 °W | Updated 17 seconds ago

Partly Cloudy
Partly Cloudy
88.2 °F
Feels Like 108 °F
N
2.7
Wind Variable Wind from NNW
Gusts 3.2 mph

Today
High -- | Low -- °F
--% Chance of Precip.
Yesterday
High -- | Low -- °F
Precip. -- in
7:01 AM 7:36 PM
Waning Gibbous, 48% visible
Pressure 29.99 in
Visibility 10.0 miles
Clouds Scattered Clouds 18000 ft
Heat Index 108 °F
Dew Point 82 °F
Humidity 81%
Rainfall 0.00 in
Snow Depth Not available.
UV 2 out of 12
Pollen 2.00 out of 12
Air Quality Not available.
Flu Activity Not available.
METAR KPMP 051253Z 36004KT 10SM SCT180 28/24 A2999 RMK AO2 SLP156 T02780244
Pressure 29.99 in
Visibility 10.0 miles
Clouds Scattered Clouds 18000 ft
Heat Index 108 °F
Dew Point 82 °F
Humidity 81%
Rainfall 0.00 in
Snow Depth Not available.
UV 2 out of 12
Pollen 2.00 out of 12
Air Quality Not available.
Flu Activity Not available.
METAR KPMP 051253Z 36004KT 10SM SCT180 28/24 A2999 RMK AO2 SLP156 T02780244

10-Day Weather Forecast

×

Almanac

Astronomy

Sep. 05, 2015 Rise Set
Actual Time
Civil Twilight
Nautical Twilight
Astronomical Twilight
Moon
Length of Visible Light
Length of Day
Tomorrow will be .
, % of the Moon is Illuminated

Today's Extremes

State Highs State Lows

Community

WunderPhotos

Upload Photos

1,852,464 photos uploaded!

WunderBlogs® & News

Nearby

Air Quality

  Air Quality AQ Index Pollutant
Not available.

Snow Depth

Station Depth Elevation

Earthquake Activity

City Distance Mag. Time & Date
Minimum magnitude displayed is 2.5.

Coastal Water Temperatures

Place Temperature

Stations

Nearby Weather Stations

Station Location Temp. Windchill Dew Point Humidity Wind Precip. Elev Updated Type